sensor_id;sensor_type;location;lat;lon;timestamp;P1;durP1;ratioP1;P2;durP2;ratioP2
30000;SDS011;16845;48.670;9.000;2023-12-20T00:00:55;2.13;;;1.90;;
30000;SDS011;16845;48.670;9.000;2023-12-20T00:03:21;1.80;;;1.50;;
30000;SDS011;16845;48.670;9.000;2023-12-20T00:05:48;1.77;;;1.67;;
30000;SDS011;16845;48.670;9.000;2023-12-20T00:08:14;2.27;;;1.67;;
30000;SDS011;16845;48.670;9.000;2023-12-20T00:10:41;1.43;;;1.33;;
30000;SDS011;16845;48.670;9.000;2023-12-20T00:13:08;3.45;;;1.95;;
30000;SDS011;16845;48.670;9.000;2023-12-20T00:15:34;1.47;;;1.37;;
30000;SDS011;16845;48.670;9.000;2023-12-20T00:18:02;2.37;;;1.80;;
30000;SDS011;16845;48.670;9.000;2023-12-20T00:20:29;1.95;;;1.60;;
30000;SDS011;16845;48.670;9.000;2023-12-20T00:22:56;4.50;;;1.60;;
30000;SDS011;16845;48.670;9.000;2023-12-20T00:25:23;2.40;;;1.50;;
30000;SDS011;16845;48.670;9.000;2023-12-20T00:27:49;1.53;;;1.33;;
30000;SDS011;16845;48.670;9.000;2023-12-20T00:30:16;3.03;;;1.67;;
30000;SDS011;16845;48.670;9.000;2023-12-20T00:32:43;3.93;;;1.60;;
30000;SDS011;16845;48.670;9.000;2023-12-20T00:35:11;1.30;;;1.20;;
30000;SDS011;16845;48.670;9.000;2023-12-20T00:37:37;2.22;;;1.45;;
30000;SDS011;16845;48.670;9.000;2023-12-20T00:40:04;2.13;;;1.52;;
30000;SDS011;16845;48.670;9.000;2023-12-20T00:42:32;1.55;;;1.40;;
30000;SDS011;16845;48.670;9.000;2023-12-20T00:44:59;1.95;;;1.70;;
30000;SDS011;16845;48.670;9.000;2023-12-20T00:47:25;2.53;;;1.70;;
30000;SDS011;16845;48.670;9.000;2023-12-20T00:49:52;1.73;;;1.63;;
30000;SDS011;16845;48.670;9.000;2023-12-20T00:52:20;2.27;;;1.77;;
30000;SDS011;16845;48.670;9.000;2023-12-20T00:54:47;1.70;;;1.60;;
30000;SDS011;16845;48.670;9.000;2023-12-20T00:57:13;2.47;;;1.67;;
30000;SDS011;16845;48.670;9.000;2023-12-20T00:59:40;3.70;;;1.77;;
30000;SDS011;16845;48.670;9.000;2023-12-20T01:02:06;1.43;;;1.33;;
30000;SDS011;16845;48.670;9.000;2023-12-20T01:04:33;2.42;;;1.80;;
30000;SDS011;16845;48.670;9.000;2023-12-20T01:07:00;2.37;;;1.53;;
30000;SDS011;16845;48.670;9.000;2023-12-20T01:09:28;2.17;;;1.58;;
30000;SDS011;16845;48.670;9.000;2023-12-20T01:11:54;1.52;;;1.30;;
30000;SDS011;16845;48.670;9.000;2023-12-20T01:14:21;5.20;;;1.52;;
30000;SDS011;16845;48.670;9.000;2023-12-20T01:16:47;1.83;;;1.73;;
30000;SDS011;16845;48.670;9.000;2023-12-20T01:19:14;2.43;;;1.40;;
30000;SDS011;16845;48.670;9.000;2023-12-20T01:21:41;2.50;;;1.90;;
30000;SDS011;16845;48.670;9.000;2023-12-20T01:24:07;2.10;;;1.90;;
30000;SDS011;16845;48.670;9.000;2023-12-20T01:26:35;2.10;;;1.60;;
30000;SDS011;16845;48.670;9.000;2023-12-20T01:29:02;2.20;;;1.35;;
30000;SDS011;16845;48.670;9.000;2023-12-20T01:31:28;4.22;;;1.90;;
30000;SDS011;16845;48.670;9.000;2023-12-20T01:33:55;1.83;;;1.33;;
30000;SDS011;16845;48.670;9.000;2023-12-20T01:36:21;2.00;;;1.10;;
30000;SDS011;16845;48.670;9.000;2023-12-20T01:38:48;1.60;;;1.50;;
30000;SDS011;16845;48.670;9.000;2023-12-20T01:41:14;1.70;;;1.25;;
30000;SDS011;16845;48.670;9.000;2023-12-20T01:43:42;1.70;;;1.20;;
30000;SDS011;16845;48.670;9.000;2023-12-20T01:46:17;1.48;;;1.20;;
30000;SDS011;16845;48.670;9.000;2023-12-20T01:48:44;2.33;;;1.20;;
30000;SDS011;16845;48.670;9.000;2023-12-20T01:51:10;1.50;;;1.40;;
30000;SDS011;16845;48.670;9.000;2023-12-20T01:53:38;1.08;;;1.00;;
30000;SDS011;16845;48.670;9.000;2023-12-20T01:56:06;1.33;;;0.90;;
30000;SDS011;16845;48.670;9.000;2023-12-20T01:58:33;1.77;;;1.10;;
30000;SDS011;16845;48.670;9.000;2023-12-20T02:01:01;1.50;;;1.20;;
30000;SDS011;16845;48.670;9.000;2023-12-20T02:03:28;1.23;;;1.00;;
30000;SDS011;16845;48.670;9.000;2023-12-20T02:05:55;0.93;;;0.93;;
30000;SDS011;16845;48.670;9.000;2023-12-20T02:08:21;1.03;;;0.97;;
30000;SDS011;16845;48.670;9.000;2023-12-20T02:10:48;1.40;;;1.30;;
30000;SDS011;16845;48.670;9.000;2023-12-20T02:13:15;3.22;;;1.52;;
30000;SDS011;16845;48.670;9.000;2023-12-20T02:15:41;0.90;;;0.90;;
30000;SDS011;16845;48.670;9.000;2023-12-20T02:18:09;1.20;;;0.93;;
30000;SDS011;16845;48.670;9.000;2023-12-20T02:20:36;2.72;;;0.90;;
30000;SDS011;16845;48.670;9.000;2023-12-20T02:23:04;3.42;;;0.90;;
30000;SDS011;16845;48.670;9.000;2023-12-20T02:25:30;1.33;;;0.88;;
30000;SDS011;16845;48.670;9.000;2023-12-20T02:27:57;1.27;;;0.90;;
30000;SDS011;16845;48.670;9.000;2023-12-20T02:30:23;1.63;;;1.00;;
30000;SDS011;16845;48.670;9.000;2023-12-20T02:32:50;1.30;;;0.80;;
30000;SDS011;16845;48.670;9.000;2023-12-20T02:35:18;0.93;;;0.73;;
30000;SDS011;16845;48.670;9.000;2023-12-20T02:37:45;2.63;;;0.90;;
30000;SDS011;16845;48.670;9.000;2023-12-20T02:40:13;2.97;;;0.90;;
30000;SDS011;16845;48.670;9.000;2023-12-20T02:42:40;2.97;;;0.90;;
30000;SDS011;16845;48.670;9.000;2023-12-20T02:45:07;1.00;;;0.90;;
30000;SDS011;16845;48.670;9.000;2023-12-20T02:50:00;1.20;;;1.00;;
30000;SDS011;16845;48.670;9.000;2023-12-20T02:52:28;0.95;;;0.90;;
30000;SDS011;16845;48.670;9.000;2023-12-20T02:54:55;0.80;;;0.60;;
30000;SDS011;16845;48.670;9.000;2023-12-20T02:57:23;1.00;;;0.80;;
30000;SDS011;16845;48.670;9.000;2023-12-20T02:59:49;0.82;;;0.75;;
30000;SDS011;16845;48.670;9.000;2023-12-20T03:02:15;2.72;;;0.70;;
30000;SDS011;16845;48.670;9.000;2023-12-20T03:04:42;0.80;;;0.80;;
30000;SDS011;16845;48.670;9.000;2023-12-20T03:07:09;0.75;;;0.70;;
30000;SDS011;16845;48.670;9.000;2023-12-20T03:09:35;0.80;;;0.65;;
30000;SDS011;16845;48.670;9.000;2023-12-20T03:12:23;2.05;;;0.50;;
30000;SDS011;16845;48.670;9.000;2023-12-20T03:14:50;0.88;;;0.70;;
30000;SDS011;16845;48.670;9.000;2023-12-20T03:17:16;0.60;;;0.60;;
30000;SDS011;16845;48.670;9.000;2023-12-20T03:19:43;0.50;;;0.50;;
30000;SDS011;16845;48.670;9.000;2023-12-20T03:22:09;0.70;;;0.70;;
30000;SDS011;16845;48.670;9.000;2023-12-20T03:24:36;0.80;;;0.80;;
30000;SDS011;16845;48.670;9.000;2023-12-20T03:27:02;0.50;;;0.50;;
30000;SDS011;16845;48.670;9.000;2023-12-20T03:29:30;0.60;;;0.60;;
30000;SDS011;16845;48.670;9.000;2023-12-20T03:31:57;0.82;;;0.50;;
30000;SDS011;16845;48.670;9.000;2023-12-20T03:34:23;0.65;;;0.50;;
30000;SDS011;16845;48.670;9.000;2023-12-20T03:36:50;0.60;;;0.60;;
30000;SDS011;16845;48.670;9.000;2023-12-20T03:39:16;0.70;;;0.70;;
30000;SDS011;16845;48.670;9.000;2023-12-20T03:41:43;0.60;;;0.60;;
30000;SDS011;16845;48.670;9.000;2023-12-20T03:44:10;0.70;;;0.70;;
30000;SDS011;16845;48.670;9.000;2023-12-20T03:46:37;1.08;;;0.60;;
30000;SDS011;16845;48.670;9.000;2023-12-20T03:49:04;0.30;;;0.30;;
30000;SDS011;16845;48.670;9.000;2023-12-20T03:51:30;0.40;;;0.40;;
30000;SDS011;16845;48.670;9.000;2023-12-20T03:53:57;1.13;;;0.50;;
30000;SDS011;16845;48.670;9.000;2023-12-20T03:56:23;0.32;;;0.32;;
30000;SDS011;16845;48.670;9.000;2023-12-20T03:58:50;0.47;;;0.47;;
30000;SDS011;16845;48.670;9.000;2023-12-20T04:01:16;0.60;;;0.60;;
30000;SDS011;16845;48.670;9.000;2023-12-20T04:03:44;0.53;;;0.53;;
30000;SDS011;16845;48.670;9.000;2023-12-20T04:06:15;0.80;;;0.60;;
30000;SDS011;16845;48.670;9.000;2023-12-20T04:08:43;0.40;;;0.40;;
30000;SDS011;16845;48.670;9.000;2023-12-20T04:11:09;0.50;;;0.35;;
30000;SDS011;16845;48.670;9.000;2023-12-20T04:13:36;0.40;;;0.40;;
30000;SDS011;16845;48.670;9.000;2023-12-20T04:16:02;0.50;;;0.50;;
30000;SDS011;16845;48.670;9.000;2023-12-20T04:18:29;3.03;;;0.50;;
30000;SDS011;16845;48.670;9.000;2023-12-20T04:20:57;0.40;;;0.40;;
30000;SDS011;16845;48.670;9.000;2023-12-20T04:23:24;0.88;;;0.40;;
30000;SDS011;16845;48.670;9.000;2023-12-20T04:25:50;0.47;;;0.47;;
30000;SDS011;16845;48.670;9.000;2023-12-20T04:28:17;0.50;;;0.50;;
30000;SDS011;16845;48.670;9.000;2023-12-20T04:30:43;0.97;;;0.60;;
30000;SDS011;16845;48.670;9.000;2023-12-20T04:33:10;0.60;;;0.60;;
30000;SDS011;16845;48.670;9.000;2023-12-20T04:35:37;0.50;;;0.50;;
30000;SDS011;16845;48.670;9.000;2023-12-20T04:38:05;0.50;;;0.50;;
30000;SDS011;16845;48.670;9.000;2023-12-20T04:40:31;0.35;;;0.35;;
30000;SDS011;16845;48.670;9.000;2023-12-20T04:42:58;0.40;;;0.40;;
30000;SDS011;16845;48.670;9.000;2023-12-20T04:45:24;0.33;;;0.33;;
30000;SDS011;16845;48.670;9.000;2023-12-20T04:47:51;0.43;;;0.43;;
30000;SDS011;16845;48.670;9.000;2023-12-20T04:50:18;0.50;;;0.50;;
30000;SDS011;16845;48.670;9.000;2023-12-20T04:52:45;0.52;;;0.52;;
30000;SDS011;16845;48.670;9.000;2023-12-20T04:55:13;0.50;;;0.50;;
30000;SDS011;16845;48.670;9.000;2023-12-20T04:57:39;0.75;;;0.30;;
30000;SDS011;16845;48.670;9.000;2023-12-20T05:00:06;0.53;;;0.50;;
30000;SDS011;16845;48.670;9.000;2023-12-20T05:02:33;4.80;;;0.60;;
30000;SDS011;16845;48.670;9.000;2023-12-20T05:05:00;0.50;;;0.50;;
30000;SDS011;16845;48.670;9.000;2023-12-20T05:07:26;1.30;;;0.70;;
30000;SDS011;16845;48.670;9.000;2023-12-20T05:09:53;0.37;;;0.37;;
30000;SDS011;16845;48.670;9.000;2023-12-20T05:12:21;4.80;;;0.60;;
30000;SDS011;16845;48.670;9.000;2023-12-20T05:14:47;0.50;;;0.50;;
30000;SDS011;16845;48.670;9.000;2023-12-20T05:17:14;0.50;;;0.50;;
30000;SDS011;16845;48.670;9.000;2023-12-20T05:19:40;0.97;;;0.60;;
30000;SDS011;16845;48.670;9.000;2023-12-20T05:22:07;4.13;;;0.70;;
30000;SDS011;16845;48.670;9.000;2023-12-20T05:24:33;1.30;;;0.60;;
30000;SDS011;16845;48.670;9.000;2023-12-20T05:27:00;1.07;;;0.70;;
30000;SDS011;16845;48.670;9.000;2023-12-20T05:29:28;0.50;;;0.50;;
30000;SDS011;16845;48.670;9.000;2023-12-20T05:31:54;1.50;;;0.60;;
30000;SDS011;16845;48.670;9.000;2023-12-20T05:34:21;0.65;;;0.57;;
30000;SDS011;16845;48.670;9.000;2023-12-20T05:36:47;0.85;;;0.55;;
30000;SDS011;16845;48.670;9.000;2023-12-20T05:39:14;1.20;;;1.10;;
30000;SDS011;16845;48.670;9.000;2023-12-20T05:41:41;0.73;;;0.70;;
30000;SDS011;16845;48.670;9.000;2023-12-20T05:44:07;0.90;;;0.73;;
30000;SDS011;16845;48.670;9.000;2023-12-20T05:46:35;1.57;;;0.60;;
30000;SDS011;16845;48.670;9.000;2023-12-20T05:49:01;1.67;;;0.50;;
30000;SDS011;16845;48.670;9.000;2023-12-20T05:51:28;0.60;;;0.60;;
30000;SDS011;16845;48.670;9.000;2023-12-20T05:53:55;0.73;;;0.40;;
30000;SDS011;16845;48.670;9.000;2023-12-20T05:56:21;3.20;;;0.70;;
30000;SDS011;16845;48.670;9.000;2023-12-20T05:58:48;0.60;;;0.60;;
30000;SDS011;16845;48.670;9.000;2023-12-20T06:01:14;1.33;;;1.23;;
30000;SDS011;16845;48.670;9.000;2023-12-20T06:03:43;0.63;;;0.63;;
30000;SDS011;16845;48.670;9.000;2023-12-20T06:06:10;0.75;;;0.65;;
30000;SDS011;16845;48.670;9.000;2023-12-20T06:08:42;0.70;;;0.70;;
30000;SDS011;16845;48.670;9.000;2023-12-20T06:11:08;1.20;;;0.93;;
30000;SDS011;16845;48.670;9.000;2023-12-20T06:13:35;5.30;;;0.87;;
30000;SDS011;16845;48.670;9.000;2023-12-20T06:16:02;0.90;;;0.80;;
30000;SDS011;16845;48.670;9.000;2023-12-20T06:18:31;1.38;;;0.70;;
30000;SDS011;16845;48.670;9.000;2023-12-20T06:20:59;1.65;;;0.77;;
30000;SDS011;16845;48.670;9.000;2023-12-20T06:23:26;2.97;;;0.60;;
30000;SDS011;16845;48.670;9.000;2023-12-20T06:25:52;0.85;;;0.65;;
30000;SDS011;16845;48.670;9.000;2023-12-20T06:28:19;1.60;;;0.77;;
30000;SDS011;16845;48.670;9.000;2023-12-20T06:30:45;2.45;;;0.95;;
30000;SDS011;16845;48.670;9.000;2023-12-20T06:33:12;1.90;;;1.23;;
30000;SDS011;16845;48.670;9.000;2023-12-20T06:35:38;3.60;;;0.80;;
30000;SDS011;16845;48.670;9.000;2023-12-20T06:38:06;3.97;;;1.27;;
30000;SDS011;16845;48.670;9.000;2023-12-20T06:40:33;2.38;;;0.80;;
30000;SDS011;16845;48.670;9.000;2023-12-20T06:42:59;1.13;;;1.00;;
30000;SDS011;16845;48.670;9.000;2023-12-20T06:45:37;7.65;;;0.80;;
30000;SDS011;16845;48.670;9.000;2023-12-20T06:48:04;2.10;;;1.20;;
30000;SDS011;16845;48.670;9.000;2023-12-20T06:52:58;1.08;;;0.80;;
30000;SDS011;16845;48.670;9.000;2023-12-20T06:55:26;1.63;;;0.90;;
30000;SDS011;16845;48.670;9.000;2023-12-20T06:57:52;2.05;;;0.70;;
30000;SDS011;16845;48.670;9.000;2023-12-20T07:00:19;1.27;;;0.90;;
30000;SDS011;16845;48.670;9.000;2023-12-20T07:02:45;4.25;;;1.15;;
30000;SDS011;16845;48.670;9.000;2023-12-20T07:05:12;3.30;;;1.00;;
30000;SDS011;16845;48.670;9.000;2023-12-20T07:07:38;3.80;;;1.00;;
30000;SDS011;16845;48.670;9.000;2023-12-20T07:10:05;1.75;;;1.05;;
30000;SDS011;16845;48.670;9.000;2023-12-20T07:12:34;2.83;;;1.10;;
30000;SDS011;16845;48.670;9.000;2023-12-20T07:15:01;1.05;;;0.88;;
30000;SDS011;16845;48.670;9.000;2023-12-20T07:17:27;1.02;;;1.02;;
30000;SDS011;16845;48.670;9.000;2023-12-20T07:19:54;0.93;;;0.93;;
30000;SDS011;16845;48.670;9.000;2023-12-20T07:22:20;5.60;;;0.93;;
30000;SDS011;16845;48.670;9.000;2023-12-20T07:24:47;0.93;;;0.87;;
30000;SDS011;16845;48.670;9.000;2023-12-20T07:27:14;1.98;;;1.20;;
30000;SDS011;16845;48.670;9.000;2023-12-20T07:29:42;1.20;;;1.10;;
30000;SDS011;16845;48.670;9.000;2023-12-20T07:32:08;1.65;;;0.93;;
30000;SDS011;16845;48.670;9.000;2023-12-20T07:34:35;1.40;;;1.30;;
30000;SDS011;16845;48.670;9.000;2023-12-20T07:37:03;1.38;;;1.13;;
30000;SDS011;16845;48.670;9.000;2023-12-20T07:39:30;2.03;;;1.30;;
30000;SDS011;16845;48.670;9.000;2023-12-20T07:41:56;1.53;;;1.20;;
30000;SDS011;16845;48.670;9.000;2023-12-20T07:44:23;1.87;;;1.50;;
30000;SDS011;16845;48.670;9.000;2023-12-20T07:46:51;1.55;;;1.45;;
30000;SDS011;16845;48.670;9.000;2023-12-20T07:49:17;2.35;;;1.17;;
30000;SDS011;16845;48.670;9.000;2023-12-20T07:51:45;2.95;;;1.60;;
30000;SDS011;16845;48.670;9.000;2023-12-20T07:54:11;2.08;;;1.90;;
30000;SDS011;16845;48.670;9.000;2023-12-20T07:56:38;2.30;;;2.10;;
30000;SDS011;16845;48.670;9.000;2023-12-20T07:59:04;2.90;;;2.60;;
30000;SDS011;16845;48.670;9.000;2023-12-20T08:01:37;2.17;;;1.98;;
30000;SDS011;16845;48.670;9.000;2023-12-20T08:04:05;4.07;;;2.42;;
30000;SDS011;16845;48.670;9.000;2023-12-20T08:06:32;2.42;;;2.00;;
30000;SDS011;16845;48.670;9.000;2023-12-20T08:08:58;2.80;;;2.53;;
30000;SDS011;16845;48.670;9.000;2023-12-20T08:11:32;5.05;;;2.42;;
30000;SDS011;16845;48.670;9.000;2023-12-20T08:13:58;2.60;;;1.80;;
30000;SDS011;16845;48.670;9.000;2023-12-20T08:16:25;2.47;;;2.28;;
30000;SDS011;16845;48.670;9.000;2023-12-20T08:18:51;2.60;;;2.30;;
30000;SDS011;16845;48.670;9.000;2023-12-20T08:21:19;5.30;;;2.13;;
30000;SDS011;16845;48.670;9.000;2023-12-20T08:23:46;3.50;;;2.35;;
30000;SDS011;16845;48.670;9.000;2023-12-20T08:26:12;2.08;;;1.90;;
30000;SDS011;16845;48.670;9.000;2023-12-20T08:28:39;2.63;;;2.30;;
30000;SDS011;16845;48.670;9.000;2023-12-20T08:31:05;3.42;;;2.30;;
30000;SDS011;16845;48.670;9.000;2023-12-20T08:33:32;2.60;;;1.90;;
30000;SDS011;16845;48.670;9.000;2023-12-20T08:35:58;2.17;;;1.97;;
30000;SDS011;16845;48.670;9.000;2023-12-20T08:38:26;3.57;;;1.87;;
30000;SDS011;16845;48.670;9.000;2023-12-20T08:40:53;2.15;;;1.95;;
30000;SDS011;16845;48.670;9.000;2023-12-20T08:43:19;3.67;;;2.00;;
30000;SDS011;16845;48.670;9.000;2023-12-20T08:45:46;4.10;;;2.20;;
30000;SDS011;16845;48.670;9.000;2023-12-20T08:48:12;2.87;;;2.13;;
30000;SDS011;16845;48.670;9.000;2023-12-20T08:50:39;2.43;;;2.23;;
30000;SDS011;16845;48.670;9.000;2023-12-20T08:53:06;5.40;;;2.50;;
30000;SDS011;16845;48.670;9.000;2023-12-20T08:55:33;3.22;;;2.20;;
30000;SDS011;16845;48.670;9.000;2023-12-20T08:58:00;3.40;;;2.20;;
30000;SDS011;16845;48.670;9.000;2023-12-20T09:00:27;5.07;;;2.37;;
30000;SDS011;16845;48.670;9.000;2023-12-20T09:02:53;6.13;;;2.80;;
30000;SDS011;16845;48.670;9.000;2023-12-20T09:05:20;5.28;;;2.33;;
30000;SDS011;16845;48.670;9.000;2023-12-20T09:07:47;5.80;;;2.40;;
30000;SDS011;16845;48.670;9.000;2023-12-20T09:10:14;4.60;;;2.10;;
30000;SDS011;16845;48.670;9.000;2023-12-20T09:12:44;5.50;;;1.92;;
30000;SDS011;16845;48.670;9.000;2023-12-20T09:15:11;3.40;;;2.10;;
30000;SDS011;16845;48.670;9.000;2023-12-20T09:17:37;2.25;;;2.05;;
30000;SDS011;16845;48.670;9.000;2023-12-20T09:20:04;6.20;;;2.10;;
30000;SDS011;16845;48.670;9.000;2023-12-20T09:22:32;6.20;;;2.60;;
30000;SDS011;16845;48.670;9.000;2023-12-20T09:24:58;4.70;;;2.40;;
30000;SDS011;16845;48.670;9.000;2023-12-20T09:27:25;9.07;;;2.75;;
30000;SDS011;16845;48.670;9.000;2023-12-20T09:29:53;8.60;;;2.20;;
30000;SDS011;16845;48.670;9.000;2023-12-20T09:32:19;3.60;;;2.08;;
30000;SDS011;16845;48.670;9.000;2023-12-20T09:34:46;7.30;;;2.03;;
30000;SDS011;16845;48.670;9.000;2023-12-20T09:39:40;5.95;;;2.50;;
30000;SDS011;16845;48.670;9.000;2023-12-20T09:42:06;8.35;;;2.33;;
30000;SDS011;16845;48.670;9.000;2023-12-20T09:44:33;8.98;;;2.30;;
30000;SDS011;16845;48.670;9.000;2023-12-20T09:47:02;8.70;;;2.55;;
30000;SDS011;16845;48.670;9.000;2023-12-20T09:49:30;8.23;;;2.13;;
30000;SDS011;16845;48.670;9.000;2023-12-20T09:51:57;10.90;;;2.05;;
30000;SDS011;16845;48.670;9.000;2023-12-20T09:54:23;7.37;;;2.10;;
30000;SDS011;16845;48.670;9.000;2023-12-20T09:56:51;5.18;;;1.90;;
30000;SDS011;16845;48.670;9.000;2023-12-20T09:59:18;6.28;;;2.85;;
30000;SDS011;16845;48.670;9.000;2023-12-20T10:01:44;5.70;;;1.67;;
30000;SDS011;16845;48.670;9.000;2023-12-20T10:04:13;9.52;;;2.85;;
30000;SDS011;16845;48.670;9.000;2023-12-20T10:06:55;8.23;;;2.00;;
30000;SDS011;16845;48.670;9.000;2023-12-20T10:09:21;10.10;;;1.63;;
30000;SDS011;16845;48.670;9.000;2023-12-20T10:11:48;4.88;;;1.92;;
30000;SDS011;16845;48.670;9.000;2023-12-20T10:14:14;5.63;;;1.75;;
30000;SDS011;16845;48.670;9.000;2023-12-20T10:16:42;4.18;;;1.40;;
30000;SDS011;16845;48.670;9.000;2023-12-20T10:19:09;4.93;;;1.80;;
30000;SDS011;16845;48.670;9.000;2023-12-20T10:21:37;7.60;;;1.73;;
30000;SDS011;16845;48.670;9.000;2023-12-20T10:24:03;4.57;;;1.77;;
30000;SDS011;16845;48.670;9.000;2023-12-20T10:26:30;8.68;;;2.92;;
30000;SDS011;16845;48.670;9.000;2023-12-20T10:28:59;4.43;;;1.73;;
30000;SDS011;16845;48.670;9.000;2023-12-20T10:31:27;6.18;;;1.40;;
30000;SDS011;16845;48.670;9.000;2023-12-20T10:33:55;6.15;;;1.55;;
30000;SDS011;16845;48.670;9.000;2023-12-20T10:36:24;4.57;;;1.77;;
30000;SDS011;16845;48.670;9.000;2023-12-20T10:38:53;4.57;;;1.50;;
30000;SDS011;16845;48.670;9.000;2023-12-20T10:41:24;12.55;;;1.95;;
30000;SDS011;16845;48.670;9.000;2023-12-20T10:43:52;3.90;;;1.63;;
30000;SDS011;16845;48.670;9.000;2023-12-20T10:46:18;8.85;;;1.83;;
30000;SDS011;16845;48.670;9.000;2023-12-20T10:48:45;9.27;;;1.52;;
30000;SDS011;16845;48.670;9.000;2023-12-20T10:51:13;3.83;;;1.23;;
30000;SDS011;16845;48.670;9.000;2023-12-20T10:53:43;10.63;;;2.40;;
30000;SDS011;16845;48.670;9.000;2023-12-20T10:56:15;5.10;;;1.50;;
30000;SDS011;16845;48.670;9.000;2023-12-20T10:58:43;7.30;;;2.13;;
30000;SDS011;16845;48.670;9.000;2023-12-20T11:01:12;7.80;;;3.20;;
30000;SDS011;16845;48.670;9.000;2023-12-20T11:03:41;4.32;;;1.75;;
30000;SDS011;16845;48.670;9.000;2023-12-20T11:06:12;10.05;;;2.47;;
30000;SDS011;16845;48.670;9.000;2023-12-20T11:08:46;4.43;;;1.67;;
30000;SDS011;16845;48.670;9.000;2023-12-20T11:11:20;5.32;;;1.98;;
30000;SDS011;16845;48.670;9.000;2023-12-20T11:13:54;6.32;;;1.80;;
30000;SDS011;16845;48.670;9.000;2023-12-20T11:16:24;3.03;;;1.70;;
30000;SDS011;16845;48.670;9.000;2023-12-20T11:18:53;8.35;;;1.95;;
30000;SDS011;16845;48.670;9.000;2023-12-20T11:21:20;5.78;;;2.00;;
30000;SDS011;16845;48.670;9.000;2023-12-20T11:23:47;11.13;;;2.22;;
30000;SDS011;16845;48.670;9.000;2023-12-20T11:26:15;4.30;;;1.80;;
30000;SDS011;16845;48.670;9.000;2023-12-20T11:28:43;4.35;;;1.67;;
30000;SDS011;16845;48.670;9.000;2023-12-20T11:31:10;6.70;;;1.70;;
30000;SDS011;16845;48.670;9.000;2023-12-20T11:33:40;11.40;;;2.42;;
30000;SDS011;16845;48.670;9.000;2023-12-20T11:36:12;3.87;;;1.90;;
30000;SDS011;16845;48.670;9.000;2023-12-20T11:38:44;6.28;;;1.58;;
30000;SDS011;16845;48.670;9.000;2023-12-20T11:41:22;5.40;;;1.42;;
30000;SDS011;16845;48.670;9.000;2023-12-20T11:43:51;9.57;;;2.30;;
30000;SDS011;16845;48.670;9.000;2023-12-20T11:46:19;11.07;;;2.63;;
30000;SDS011;16845;48.670;9.000;2023-12-20T11:51:14;7.63;;;1.80;;
30000;SDS011;16845;48.670;9.000;2023-12-20T11:53:41;7.05;;;2.20;;
30000;SDS011;16845;48.670;9.000;2023-12-20T11:56:07;5.50;;;1.90;;
30000;SDS011;16845;48.670;9.000;2023-12-20T12:01:03;4.70;;;2.38;;
30000;SDS011;16845;48.670;9.000;2023-12-20T12:03:31;7.30;;;1.85;;
30000;SDS011;16845;48.670;9.000;2023-12-20T12:05:57;10.07;;;2.10;;
30000;SDS011;16845;48.670;9.000;2023-12-20T12:08:24;9.95;;;2.35;;
30000;SDS011;16845;48.670;9.000;2023-12-20T12:10:51;4.25;;;1.92;;
30000;SDS011;16845;48.670;9.000;2023-12-20T12:13:18;4.43;;;1.75;;
30000;SDS011;16845;48.670;9.000;2023-12-20T12:15:44;9.95;;;2.38;;
30000;SDS011;16845;48.670;9.000;2023-12-20T12:18:15;8.65;;;1.70;;
30000;SDS011;16845;48.670;9.000;2023-12-20T12:20:42;5.50;;;1.77;;
30000;SDS011;16845;48.670;9.000;2023-12-20T12:23:09;9.75;;;2.72;;
30000;SDS011;16845;48.670;9.000;2023-12-20T12:25:35;8.30;;;1.67;;
30000;SDS011;16845;48.670;9.000;2023-12-20T12:28:08;10.70;;;2.10;;
30000;SDS011;16845;48.670;9.000;2023-12-20T12:30:34;3.80;;;2.43;;
30000;SDS011;16845;48.670;9.000;2023-12-20T12:33:12;6.22;;;1.65;;
30000;SDS011;16845;48.670;9.000;2023-12-20T12:35:39;14.65;;;3.00;;
30000;SDS011;16845;48.670;9.000;2023-12-20T12:38:07;7.55;;;1.95;;
30000;SDS011;16845;48.670;9.000;2023-12-20T12:40:34;3.88;;;2.17;;
30000;SDS011;16845;48.670;9.000;2023-12-20T12:43:01;3.20;;;1.60;;
30000;SDS011;16845;48.670;9.000;2023-12-20T12:45:27;6.83;;;1.67;;
30000;SDS011;16845;48.670;9.000;2023-12-20T12:47:54;11.52;;;2.17;;
30000;SDS011;16845;48.670;9.000;2023-12-20T12:50:22;8.48;;;2.58;;
30000;SDS011;16845;48.670;9.000;2023-12-20T12:52:49;5.13;;;2.10;;
30000;SDS011;16845;48.670;9.000;2023-12-20T12:55:15;8.50;;;1.50;;
30000;SDS011;16845;48.670;9.000;2023-12-20T12:57:42;8.20;;;2.80;;
30000;SDS011;16845;48.670;9.000;2023-12-20T13:00:09;6.65;;;2.33;;
30000;SDS011;16845;48.670;9.000;2023-12-20T13:02:36;10.93;;;3.08;;
30000;SDS011;16845;48.670;9.000;2023-12-20T13:05:03;8.15;;;2.10;;
30000;SDS011;16845;48.670;9.000;2023-12-20T13:07:31;10.43;;;3.17;;
30000;SDS011;16845;48.670;9.000;2023-12-20T13:09:58;9.52;;;1.73;;
30000;SDS011;16845;48.670;9.000;2023-12-20T13:12:25;8.77;;;1.75;;
30000;SDS011;16845;48.670;9.000;2023-12-20T13:14:51;2.53;;;1.17;;
30000;SDS011;16845;48.670;9.000;2023-12-20T13:17:18;10.17;;;2.00;;
30000;SDS011;16845;48.670;9.000;2023-12-20T13:19:44;9.80;;;1.90;;
30000;SDS011;16845;48.670;9.000;2023-12-20T13:22:11;6.23;;;1.73;;
30000;SDS011;16845;48.670;9.000;2023-12-20T13:24:39;5.67;;;1.70;;
30000;SDS011;16845;48.670;9.000;2023-12-20T13:27:05;15.07;;;1.73;;
30000;SDS011;16845;48.670;9.000;2023-12-20T13:29:32;11.38;;;1.85;;
30000;SDS011;16845;48.670;9.000;2023-12-20T13:32:00;3.80;;;1.65;;
30000;SDS011;16845;48.670;9.000;2023-12-20T13:34:27;10.03;;;2.20;;
30000;SDS011;16845;48.670;9.000;2023-12-20T13:36:54;6.70;;;1.70;;
30000;SDS011;16845;48.670;9.000;2023-12-20T13:39:20;6.88;;;1.77;;
30000;SDS011;16845;48.670;9.000;2023-12-20T13:41:48;6.03;;;1.97;;
30000;SDS011;16845;48.670;9.000;2023-12-20T13:44:15;5.18;;;1.80;;
30000;SDS011;16845;48.670;9.000;2023-12-20T13:46:41;3.67;;;1.55;;
30000;SDS011;16845;48.670;9.000;2023-12-20T13:49:08;9.80;;;2.50;;
30000;SDS011;16845;48.670;9.000;2023-12-20T13:51:34;8.80;;;3.35;;
30000;SDS011;16845;48.670;9.000;2023-12-20T13:54:01;4.80;;;1.70;;
30000;SDS011;16845;48.670;9.000;2023-12-20T13:56:27;4.03;;;1.53;;
30000;SDS011;16845;48.670;9.000;2023-12-20T13:58:56;7.97;;;2.72;;
30000;SDS011;16845;48.670;9.000;2023-12-20T14:01:23;9.98;;;2.45;;
30000;SDS011;16845;48.670;9.000;2023-12-20T14:03:49;4.43;;;1.58;;
30000;SDS011;16845;48.670;9.000;2023-12-20T14:06:16;6.03;;;1.70;;
30000;SDS011;16845;48.670;9.000;2023-12-20T14:08:42;7.22;;;2.03;;
30000;SDS011;16845;48.670;9.000;2023-12-20T14:11:09;12.23;;;1.90;;
30000;SDS011;16845;48.670;9.000;2023-12-20T14:13:36;13.52;;;2.13;;
30000;SDS011;16845;48.670;9.000;2023-12-20T14:16:04;5.63;;;1.80;;
30000;SDS011;16845;48.670;9.000;2023-12-20T14:18:31;9.88;;;1.77;;
30000;SDS011;16845;48.670;9.000;2023-12-20T14:20:57;10.65;;;2.28;;
30000;SDS011;16845;48.670;9.000;2023-12-20T14:23:24;3.67;;;1.63;;
30000;SDS011;16845;48.670;9.000;2023-12-20T14:25:51;8.18;;;1.88;;
30000;SDS011;16845;48.670;9.000;2023-12-20T14:28:18;7.72;;;2.03;;
30000;SDS011;16845;48.670;9.000;2023-12-20T14:30:45;9.52;;;1.70;;
30000;SDS011;16845;48.670;9.000;2023-12-20T14:33:13;8.77;;;1.60;;
30000;SDS011;16845;48.670;9.000;2023-12-20T14:35:39;8.65;;;2.00;;
30000;SDS011;16845;48.670;9.000;2023-12-20T14:38:08;5.65;;;1.85;;
30000;SDS011;16845;48.670;9.000;2023-12-20T14:40:34;9.98;;;2.25;;
30000;SDS011;16845;48.670;9.000;2023-12-20T14:43:01;9.25;;;2.15;;
30000;SDS011;16845;48.670;9.000;2023-12-20T14:45:27;6.07;;;1.70;;
30000;SDS011;16845;48.670;9.000;2023-12-20T14:47:54;6.83;;;2.17;;
30000;SDS011;16845;48.670;9.000;2023-12-20T14:50:22;9.37;;;2.53;;
30000;SDS011;16845;48.670;9.000;2023-12-20T14:52:49;6.20;;;2.10;;
30000;SDS011;16845;48.670;9.000;2023-12-20T14:55:15;7.30;;;2.33;;
30000;SDS011;16845;48.670;9.000;2023-12-20T14:57:42;5.73;;;2.13;;
30000;SDS011;16845;48.670;9.000;2023-12-20T15:00:09;7.90;;;2.85;;